Tokuyo Maru No.15 — JD2184 — position and weather

sailwx.info

Track history (hours):
 
Tides and Currents Weather Stations Pressure Air Temp Water Temp Dewpoint Dewpoint Depression Visibility Wind Speed Wind Dir Waves Ship Positions

Tokuyo Maru No.15

Last reported at 2017-Sep-21 10:51 UTC. Time now 2017-Sep-21 14:29 UTC.
Position N 34°10' E 134°59'.

Length 66 m; draft 4.5 m.

Type: Tanker. MMSI: 431402034.

Date/timePositionNaut miles runAvg speedWind from/ knotsBaromVisibWave heightAir tempDewpointWater temp
2017-Sep-21 10:51N 34°10' E 134°59'512.5
2017-Sep-21 10:29N 34°14' E 134°58'1810.9
2017-Sep-21 08:51N 34°28' E 135°11'412.2
2017-Sep-21 08:30N 34°31' E 135°16'611.7
2017-Sep-21 07:59N 34°33' E 135°23'2 0.4
2017-Sep-21 02:43N 34°33' E 135°25'1 4.0
2017-Sep-21 02:26N 34°33' E 135°24'511.8
2017-Sep-21 02:00N 34°32' E 135°18'612.1
2017-Sep-21 01:28N 34°28' E 135°12'1312.2
2017-Sep-21 00:22N 34°19' E 135°00'612.2
2017-Sep-20 23:54N 34°13' E 134°59'712.6
2017-Sep-20 23:23N 34°07' E 135°00'1 0.0
2017-Sep-19 11:23N 34°07' E 134°59'611.6
2017-Sep-19 10:49N 34°14' E 134°59'1810.1
2017-Sep-19 09:01N 34°28' E 135°12'112.3
2017-Sep-19 08:56N 34°28' E 135°13'512.0
2017-Sep-19 08:29N 34°32' E 135°19'6 1.5
2017-Sep-19 04:52N 34°32' E 135°25'1 2.2
2017-Sep-19 04:29N 34°33' E 135°25'611.9
2017-Sep-19 04:00N 34°31' E 135°19'612.1
2017-Sep-19 03:29N 34°28' E 135°12'1710.8
2017-Sep-19 01:55N 34°15' E 134°60'512.4
2017-Sep-19 01:29N 34°09' E 135°00'  
2017-Sep-15 12:20N 34°07' E 134°59'512.8
2017-Sep-15 11:56N 34°12' E 134°59'1511.9
2017-Sep-15 10:40N 34°25' E 135°08'512.5
2017-Sep-15 10:15N 34°29' E 135°13'412.8
2017-Sep-15 09:56N 34°31' E 135°17'7 1.3
2017-Sep-15 04:31N 34°33' E 135°25'0 9.1
2017-Sep-15 04:30N 34°33' E 135°25'3 6.8
2017-Sep-15 03:59N 34°33' E 135°21'4 9.0
2017-Sep-15 03:30N 34°31' E 135°16'611.4
2017-Sep-15 02:59N 34°27' E 135°10'1710.4
2017-Sep-15 01:21N 34°13' E 134°59'  
2017-Sep-12 07:37N 34°05' E 134°60'111.2
2017-Sep-12 07:30N 34°06' E 134°59'611.3
2017-Sep-12 07:00N 34°12' E 134°59'2110.1
2017-Sep-12 04:57N 34°28' E 135°13'612.1
2017-Sep-12 04:29N 34°32' E 135°19'510.0
2017-Sep-12 03:57N 34°33' E 135°25'1 0.1
2017-Sep-11 23:36N 34°33' E 135°25'1 5.5
2017-Sep-11 23:29N 34°33' E 135°25'4 4.1
2017-Sep-11 22:30N 34°32' E 135°20'0 0.0
2017-Sep-11 22:00N 34°32' E 135°20'0 0.0
2017-Sep-11 21:12N 34°32' E 135°20'0 0.1
2017-Sep-11 20:48N 34°32' E 135°20'0 0.0
2017-Sep-11 20:24N 34°32' E 135°20'0 0.0
2017-Sep-11 19:54N 34°32' E 135°20'0 0.0
2017-Sep-11 19:30N 34°32' E 135°20'0 0.0
2017-Sep-11 18:42N 34°32' E 135°20'0 0.0
2017-Sep-11 18:18N 34°32' E 135°20'0 0.0
2017-Sep-11 16:36N 34°32' E 135°20'0 0.0
2017-Sep-11 16:24N 34°32' E 135°20'0 0.0
2017-Sep-11 16:00N 34°32' E 135°20'0 0.0
2017-Sep-11 15:30N 34°32' E 135°20'0 0.0
2017-Sep-11 14:42N 34°32' E 135°20'0 0.2
2017-Sep-11 14:24N 34°32' E 135°20'0 0.0
2017-Sep-11 13:24N 34°32' E 135°20'0 0.0
2017-Sep-11 13:00N 34°32' E 135°20'3 5.7
2017-Sep-11 12:30N 34°31' E 135°17'612.4
2017-Sep-11 12:00N 34°27' E 135°11'  
Track history (hours):
 
Tides and Currents Weather Stations Pressure Air Temp Water Temp Dewpoint Dewpoint Depression Visibility Wind Speed Wind Dir Waves Ship Positions

Tokuyo Maru No.15

Last reported at 2017-Sep-21 10:51 UTC. Time now 2017-Sep-21 14:29 UTC.
Position N 34°10' E 134°59'.

Length 66 m; draft 4.5 m.

Type: Tanker. MMSI: 431402034.

Date/timePositionNaut miles runAvg speedWind from/ knotsBaromVisibWave heightAir tempDewpointWater temp
2017-Sep-21 10:51N 34°10' E 134°59'512.5
2017-Sep-21 10:29N 34°14' E 134°58'1810.9
2017-Sep-21 08:51N 34°28' E 135°11'412.2
2017-Sep-21 08:30N 34°31' E 135°16'611.7
2017-Sep-21 07:59N 34°33' E 135°23'2 0.4
2017-Sep-21 02:43N 34°33' E 135°25'1 4.0
2017-Sep-21 02:26N 34°33' E 135°24'511.8
2017-Sep-21 02:00N 34°32' E 135°18'612.1
2017-Sep-21 01:28N 34°28' E 135°12'1312.2
2017-Sep-21 00:22N 34°19' E 135°00'612.2
2017-Sep-20 23:54N 34°13' E 134°59'712.6
2017-Sep-20 23:23N 34°07' E 135°00'1 0.0
2017-Sep-19 11:23N 34°07' E 134°59'611.6
2017-Sep-19 10:49N 34°14' E 134°59'1810.1
2017-Sep-19 09:01N 34°28' E 135°12'112.3
2017-Sep-19 08:56N 34°28' E 135°13'512.0
2017-Sep-19 08:29N 34°32' E 135°19'6 1.5
2017-Sep-19 04:52N 34°32' E 135°25'1 2.2
2017-Sep-19 04:29N 34°33' E 135°25'611.9
2017-Sep-19 04:00N 34°31' E 135°19'612.1
2017-Sep-19 03:29N 34°28' E 135°12'1710.8
2017-Sep-19 01:55N 34°15' E 134°60'512.4
2017-Sep-19 01:29N 34°09' E 135°00'  
2017-Sep-15 12:20N 34°07' E 134°59'512.8
2017-Sep-15 11:56N 34°12' E 134°59'1511.9
2017-Sep-15 10:40N 34°25' E 135°08'512.5
2017-Sep-15 10:15N 34°29' E 135°13'412.8
2017-Sep-15 09:56N 34°31' E 135°17'7 1.3
2017-Sep-15 04:31N 34°33' E 135°25'0 9.1
2017-Sep-15 04:30N 34°33' E 135°25'3 6.8
2017-Sep-15 03:59N 34°33' E 135°21'4 9.0
2017-Sep-15 03:30N 34°31' E 135°16'611.4
2017-Sep-15 02:59N 34°27' E 135°10'1710.4
2017-Sep-15 01:21N 34°13' E 134°59'  
2017-Sep-12 07:37N 34°05' E 134°60'111.2
2017-Sep-12 07:30N 34°06' E 134°59'611.3
2017-Sep-12 07:00N 34°12' E 134°59'2110.1
2017-Sep-12 04:57N 34°28' E 135°13'612.1
2017-Sep-12 04:29N 34°32' E 135°19'510.0
2017-Sep-12 03:57N 34°33' E 135°25'1 0.1
2017-Sep-11 23:36N 34°33' E 135°25'1 5.5
2017-Sep-11 23:29N 34°33' E 135°25'4 4.1
2017-Sep-11 22:30N 34°32' E 135°20'0 0.0
2017-Sep-11 22:00N 34°32' E 135°20'0 0.0
2017-Sep-11 21:12N 34°32' E 135°20'0 0.1
2017-Sep-11 20:48N 34°32' E 135°20'0 0.0
2017-Sep-11 20:24N 34°32' E 135°20'0 0.0
2017-Sep-11 19:54N 34°32' E 135°20'0 0.0
2017-Sep-11 19:30N 34°32' E 135°20'0 0.0
2017-Sep-11 18:42N 34°32' E 135°20'0 0.0
2017-Sep-11 18:18N 34°32' E 135°20'0 0.0
2017-Sep-11 16:36N 34°32' E 135°20'0 0.0
2017-Sep-11 16:24N 34°32' E 135°20'0 0.0
2017-Sep-11 16:00N 34°32' E 135°20'0 0.0
2017-Sep-11 15:30N 34°32' E 135°20'0 0.0
2017-Sep-11 14:42N 34°32' E 135°20'0 0.2
2017-Sep-11 14:24N 34°32' E 135°20'0 0.0
2017-Sep-11 13:24N 34°32' E 135°20'0 0.0
2017-Sep-11 13:00N 34°32' E 135°20'3 5.7
2017-Sep-11 12:30N 34°31' E 135°17'612.4
2017-Sep-11 12:00N 34°27' E 135°11'  

Dump ship's entire track history